Time;durP1;ratioP1;P1;durP2;ratioP2;P2;SDS_P1;SDS_P2;PMS_P1;PMS_P2;Temp;Humidity;BMP_temperature;BMP_pressure;BME280_temperature;BME280_humidity;BME280_pressure;Samples;Min_cycle;Max_cycle;Signal;HPM_P1;HPM_P2
2024/02/13 00:00:11;;;;;;;10.37;7.10;;;;;;;;;;699670;28;1419;-67
2024/02/13 00:00:33;;;;;;;10.65;7.00;;;;;;;;;;698914;28;1117;-67
2024/02/13 00:00:55;;;;;;;10.77;6.80;;;;;;;;;;697249;28;2328;-68
2024/02/13 00:01:15;;;;;;;10.82;7.10;;;;;;;;;;698807;28;3329;-68
2024/02/13 00:01:41;;;;;;;11.10;7.17;;;;;;;;;;698633;28;4378;-68
2024/02/13 00:02:01;;;;;;;9.25;6.47;;;;;;;;;;699490;27;1019;-67
2024/02/13 00:02:21;;;;;;;10.37;6.70;;;;;;;;;;705404;27;915;-68
2024/02/13 00:02:41;;;;;;;10.83;6.63;;;;;;;;;;704059;27;1042;-68
2024/02/13 00:03:02;;;;;;;11.30;6.83;;;;;;;;;;703928;27;943;-68
2024/02/13 00:03:22;;;;;;;11.43;7.30;;;;;;;;;;704541;28;738;-68
2024/02/13 00:03:42;;;;;;;11.45;7.20;;;;;;;;;;703027;28;1748;-68
2024/02/13 00:04:03;;;;;;;9.83;6.63;;;;;;;;;;705304;27;849;-68
2024/02/13 00:04:23;;;;;;;10.97;7.10;;;;;;;;;;705013;27;888;-68
2024/02/13 00:04:43;;;;;;;9.70;7.00;;;;;;;;;;699060;28;4259;-68
2024/02/13 00:05:07;;;;;;;9.80;6.93;;;;;;;;;;701548;28;805;-68
2024/02/13 00:05:27;;;;;;;9.95;6.63;;;;;;;;;;701756;28;986;-68
2024/02/13 00:05:48;;;;;;;11.23;6.53;;;;;;;;;;700647;28;1557;-67
2024/02/13 00:06:09;;;;;;;11.70;6.78;;;;;;;;;;701504;28;824;-69
2024/02/13 00:06:29;;;;;;;10.40;6.60;;;;;;;;;;702168;28;1934;-68
2024/02/13 00:06:53;;;;;;;9.20;6.77;;;;;;;;;;705712;27;1732;-68
2024/02/13 00:07:14;;;;;;;10.28;6.38;;;;;;;;;;703806;27;1179;-68
2024/02/13 00:07:36;;;;;;;10.00;6.27;;;;;;;;;;703931;27;4268;-68
2024/02/13 00:07:59;;;;;;;9.73;6.50;;;;;;;;;;703940;27;1657;-69
2024/02/13 00:08:20;;;;;;;10.15;6.65;;;;;;;;;;700519;28;947;-69
2024/02/13 00:08:41;;;;;;;10.60;6.80;;;;;;;;;;699611;28;2361;-68
2024/02/13 00:09:02;;;;;;;11.20;6.72;;;;;;;;;;701398;28;980;-68
2024/02/13 00:09:22;;;;;;;11.43;7.10;;;;;;;;;;700716;28;1228;-69
2024/02/13 00:09:43;;;;;;;9.68;7.10;;;;;;;;;;700391;28;2591;-69
2024/02/13 00:10:04;;;;;;;9.20;6.95;;;;;;;;;;701524;28;821;-69
2024/02/13 00:10:25;;;;;;;9.98;6.38;;;;;;;;;;700202;28;1256;-69
2024/02/13 00:10:45;;;;;;;10.05;6.50;;;;;;;;;;699811;28;4504;-68
2024/02/13 00:11:06;;;;;;;9.80;6.60;;;;;;;;;;702404;28;777;-68
2024/02/13 00:11:27;;;;;;;10.48;7.32;;;;;;;;;;700757;28;1106;-68
2024/02/13 00:11:47;;;;;;;9.75;6.70;;;;;;;;;;701367;28;1743;-68
2024/02/13 00:12:08;;;;;;;11.03;6.57;;;;;;;;;;703206;28;916;-68
2024/02/13 00:12:28;;;;;;;10.57;6.68;;;;;;;;;;704028;27;912;-68
2024/02/13 00:12:48;;;;;;;10.20;6.87;;;;;;;;;;703125;27;1887;-69
2024/02/13 00:13:09;;;;;;;9.57;6.50;;;;;;;;;;705980;27;920;-68
2024/02/13 00:13:29;;;;;;;9.77;6.50;;;;;;;;;;703497;28;1241;-68
2024/02/13 00:13:49;;;;;;;10.50;6.73;;;;;;;;;;703654;27;4539;-69
2024/02/13 00:14:10;;;;;;;10.60;6.60;;;;;;;;;;705614;27;1184;-68
2024/02/13 00:14:30;;;;;;;9.20;6.60;;;;;;;;;;705871;27;865;-69
2024/02/13 00:14:51;;;;;;;9.70;7.00;;;;;;;;;;703075;28;2253;-68
2024/02/13 00:15:14;;;;;;;10.85;7.25;;;;;;;;;;704729;28;928;-68
2024/02/13 00:15:37;;;;;;;9.63;6.38;;;;;;;;;;704804;27;1003;-68
2024/02/13 00:15:57;;;;;;;10.68;6.60;;;;;;;;;;700439;28;1048;-68
2024/02/13 00:16:17;;;;;;;12.53;6.73;;;;;;;;;;701997;28;940;-68
2024/02/13 00:16:38;;;;;;;11.90;6.90;;;;;;;;;;699320;28;4330;-68
2024/02/13 00:16:59;;;;;;;11.30;7.07;;;;;;;;;;700377;28;1512;-68
2024/02/13 00:17:19;;;;;;;10.80;7.07;;;;;;;;;;702444;28;957;-68
2024/02/13 00:17:41;;;;;;;10.30;7.07;;;;;;;;;;702277;28;750;-68
2024/02/13 00:18:03;;;;;;;10.60;6.88;;;;;;;;;;702801;27;995;-68
2024/02/13 00:18:23;;;;;;;11.13;7.03;;;;;;;;;;704139;27;1089;-68
2024/02/13 00:18:43;;;;;;;11.87;7.40;;;;;;;;;;703720;27;1949;-67
2024/02/13 00:19:06;;;;;;;10.68;6.82;;;;;;;;;;702650;28;1349;-68
2024/02/13 00:19:27;;;;;;;9.80;6.70;;;;;;;;;;702608;28;901;-68
2024/02/13 00:19:47;;;;;;;10.03;6.90;;;;;;;;;;699129;28;4375;-69
2024/02/13 00:20:08;;;;;;;10.07;6.87;;;;;;;;;;699050;28;920;-69
2024/02/13 00:20:28;;;;;;;8.90;6.53;;;;;;;;;;697928;28;964;-69
2024/02/13 00:20:49;;;;;;;10.68;6.90;;;;;;;;;;696967;28;1802;-69
2024/02/13 00:21:09;;;;;;;10.82;6.70;;;;;;;;;;700349;28;1080;-68
2024/02/13 00:21:35;;;;;;;9.97;6.83;;;;;;;;;;700668;28;1417;-68
2024/02/13 00:21:56;;;;;;;10.23;7.00;;;;;;;;;;694451;28;1901;-69
2024/02/13 00:22:16;;;;;;;11.47;7.10;;;;;;;;;;695963;28;1140;-69
2024/02/13 00:22:36;;;;;;;10.37;7.07;;;;;;;;;;695468;28;4290;-68
2024/02/13 00:22:59;;;;;;;10.27;6.30;;;;;;;;;;694521;28;1796;-68
2024/02/13 00:23:19;;;;;;;9.75;6.57;;;;;;;;;;696315;28;908;-69
2024/02/13 00:23:39;;;;;;;9.50;6.53;;;;;;;;;;696899;28;957;-68
2024/02/13 00:24:00;;;;;;;9.43;6.75;;;;;;;;;;699528;28;1770;-69
2024/02/13 00:24:20;;;;;;;9.40;6.50;;;;;;;;;;698687;28;1677;-68
2024/02/13 00:24:40;;;;;;;10.63;6.43;;;;;;;;;;698915;28;1397;-68
2024/02/13 00:25:01;;;;;;;11.10;6.87;;;;;;;;;;701161;28;913;-68
2024/02/13 00:25:21;;;;;;;9.83;6.83;;;;;;;;;;700892;28;1063;-69
2024/02/13 00:25:42;;;;;;;10.38;7.00;;;;;;;;;;697165;28;4257;-69
2024/02/13 00:26:03;;;;;;;10.02;6.63;;;;;;;;;;698038;28;916;-69
2024/02/13 00:26:23;;;;;;;11.68;6.90;;;;;;;;;;701068;28;1983;-69
2024/02/13 00:26:44;;;;;;;10.50;7.20;;;;;;;;;;699434;28;999;-68
2024/02/13 00:27:05;;;;;;;11.05;6.95;;;;;;;;;;699238;28;821;-69
2024/02/13 00:27:25;;;;;;;11.50;6.57;;;;;;;;;;701097;28;777;-68
2024/02/13 00:27:46;;;;;;;10.82;6.78;;;;;;;;;;701130;28;1915;-69
2024/02/13 00:28:07;;;;;;;9.55;6.35;;;;;;;;;;697799;28;1225;-69
2024/02/13 00:28:27;;;;;;;10.45;6.85;;;;;;;;;;700702;28;1014;-68
2024/02/13 00:28:47;;;;;;;11.43;6.83;;;;;;;;;;697587;28;4199;-69
2024/02/13 00:29:07;;;;;;;10.40;6.63;;;;;;;;;;702129;28;979;-69
2024/02/13 00:29:28;;;;;;;9.52;6.85;;;;;;;;;;700778;28;1214;-69
2024/02/13 00:29:49;;;;;;;10.23;6.87;;;;;;;;;;699862;28;1342;-69
2024/02/13 00:30:11;;;;;;;10.13;6.60;;;;;;;;;;705425;27;1006;-68
2024/02/13 00:30:31;;;;;;;9.95;6.80;;;;;;;;;;704791;27;927;-69
2024/02/13 00:30:52;;;;;;;10.30;7.03;;;;;;;;;;705410;27;2165;-69
2024/02/13 00:31:12;;;;;;;9.33;6.97;;;;;;;;;;703638;28;1261;-68
2024/02/13 00:31:33;;;;;;;10.17;7.20;;;;;;;;;;702567;28;4422;-69
2024/02/13 00:31:54;;;;;;;10.98;6.95;;;;;;;;;;704548;27;3897;-68
2024/02/13 00:32:14;;;;;;;11.43;6.70;;;;;;;;;;704875;27;967;-68
2024/02/13 00:32:37;;;;;;;10.18;6.72;;;;;;;;;;704978;27;860;-68
2024/02/13 00:32:57;;;;;;;10.43;6.80;;;;;;;;;;702250;27;1522;-68
2024/02/13 00:33:19;;;;;;;11.50;7.07;;;;;;;;;;704912;27;1034;-69
2024/02/13 00:33:40;;;;;;;10.90;6.75;;;;;;;;;;705586;27;939;-69
2024/02/13 00:34:00;;;;;;;10.63;7.00;;;;;;;;;;703024;28;1854;-68
2024/02/13 00:34:22;;;;;;;10.53;7.00;;;;;;;;;;704761;28;1190;-69
2024/02/13 00:34:44;;;;;;;10.80;7.07;;;;;;;;;;699700;28;4307;-69
2024/02/13 00:35:05;;;;;;;10.25;6.43;;;;;;;;;;700855;28;1651;-68
2024/02/13 00:35:25;;;;;;;9.70;6.35;;;;;;;;;;703035;28;971;-68
2024/02/13 00:35:46;;;;;;;10.18;6.60;;;;;;;;;;701579;28;1654;-69
2024/02/13 00:36:09;;;;;;;8.67;6.50;;;;;;;;;;701584;28;1329;-69
2024/02/13 00:36:32;;;;;;;11.55;6.90;;;;;;;;;;703294;28;1033;-68
2024/02/13 00:36:52;;;;;;;9.98;6.85;;;;;;;;;;702576;27;2724;-69
2024/02/13 00:37:13;;;;;;;9.43;6.75;;;;;;;;;;705011;28;876;-68
2024/02/13 00:37:36;;;;;;;10.07;6.60;;;;;;;;;;704436;27;4419;-68
2024/02/13 00:37:56;;;;;;;10.52;6.68;;;;;;;;;;704518;27;1861;-69
2024/02/13 00:38:16;;;;;;;10.77;6.80;;;;;;;;;;702098;28;1072;-68
2024/02/13 00:38:40;;;;;;;10.57;6.87;;;;;;;;;;702097;28;903;-69
2024/02/13 00:39:00;;;;;;;11.68;7.20;;;;;;;;;;699505;28;2676;-68
2024/02/13 00:39:21;;;;;;;12.60;6.70;;;;;;;;;;700874;28;1332;-69
2024/02/13 00:39:42;;;;;;;12.90;7.00;;;;;;;;;;702253;28;1109;-68
2024/02/13 00:40:05;;;;;;;11.07;6.93;;;;;;;;;;698941;28;2047;-68
2024/02/13 00:40:25;;;;;;;10.32;6.72;;;;;;;;;;701742;28;955;-68
2024/02/13 00:40:45;;;;;;;10.57;6.55;;;;;;;;;;699004;28;4235;-68
2024/02/13 00:41:06;;;;;;;10.73;6.77;;;;;;;;;;700001;28;898;-68
2024/02/13 00:41:27;;;;;;;11.23;7.07;;;;;;;;;;699156;28;927;-69
2024/02/13 00:41:47;;;;;;;9.80;6.68;;;;;;;;;;698602;28;2403;-68
2024/02/13 00:42:08;;;;;;;9.48;6.45;;;;;;;;;;701471;28;833;-68
2024/02/13 00:42:28;;;;;;;9.90;6.70;;;;;;;;;;698937;28;1297;-68
2024/02/13 00:42:52;;;;;;;9.40;6.72;;;;;;;;;;700427;28;2131;-69
2024/02/13 00:43:17;;;;;;;10.48;6.57;;;;;;;;;;702262;27;1016;-68
2024/02/13 00:43:37;;;;;;;11.25;6.80;;;;;;;;;;702994;27;4440;-69
2024/02/13 00:43:58;;;;;;;10.73;6.63;;;;;;;;;;702896;28;1904;-68
2024/02/13 00:44:19;;;;;;;11.07;6.80;;;;;;;;;;704411;27;900;-69
2024/02/13 00:44:40;;;;;;;10.68;6.28;;;;;;;;;;706297;27;864;-68
2024/02/13 00:45:03;;;;;;;10.88;7.18;;;;;;;;;;703103;27;1795;-69
2024/02/13 00:45:23;;;;;;;11.27;7.13;;;;;;;;;;705218;27;824;-68
2024/02/13 00:45:44;;;;;;;13.57;7.43;;;;;;;;;;704122;27;1912;-68
2024/02/13 00:46:04;;;;;;;10.48;7.28;;;;;;;;;;705384;27;896;-69
2024/02/13 00:46:24;;;;;;;9.63;6.63;;;;;;;;;;703941;28;1906;-69
2024/02/13 00:46:45;;;;;;;10.40;6.67;;;;;;;;;;702014;27;4453;-68
2024/02/13 00:47:05;;;;;;;10.23;6.70;;;;;;;;;;704017;28;1273;-68
2024/02/13 00:47:28;;;;;;;10.38;6.68;;;;;;;;;;703154;28;975;-68
2024/02/13 00:47:49;;;;;;;10.65;6.82;;;;;;;;;;701756;28;1034;-68
2024/02/13 00:48:10;;;;;;;10.65;6.85;;;;;;;;;;703810;28;892;-69
2024/02/13 00:48:31;;;;;;;10.27;6.67;;;;;;;;;;704130;27;1021;-68
2024/02/13 00:48:52;;;;;;;11.68;7.47;;;;;;;;;;700211;28;1344;-69
2024/02/13 00:49:13;;;;;;;12.18;7.30;;;;;;;;;;705014;27;814;-69
2024/02/13 00:49:34;;;;;;;11.48;7.10;;;;;;;;;;704443;27;4390;-69
2024/02/13 00:49:54;;;;;;;12.27;6.75;;;;;;;;;;702157;28;2478;-69
2024/02/13 00:50:16;;;;;;;12.03;6.83;;;;;;;;;;702280;28;1226;-68
2024/02/13 00:50:37;;;;;;;10.43;6.80;;;;;;;;;;706065;27;863;-69
2024/02/13 00:50:58;;;;;;;11.43;6.80;;;;;;;;;;704433;27;1143;-68
2024/02/13 00:51:18;;;;;;;10.65;6.60;;;;;;;;;;704186;28;923;-68
2024/02/13 00:51:41;;;;;;;10.50;6.53;;;;;;;;;;705174;27;769;-68
2024/02/13 00:52:01;;;;;;;11.30;7.55;;;;;;;;;;703324;27;2218;-68
2024/02/13 00:52:21;;;;;;;10.70;6.80;;;;;;;;;;704900;27;927;-69
2024/02/13 00:52:42;;;;;;;9.98;6.65;;;;;;;;;;702827;28;5263;-68
2024/02/13 00:53:02;;;;;;;10.83;6.90;;;;;;;;;;704356;28;907;-68
2024/02/13 00:53:22;;;;;;;11.32;7.20;;;;;;;;;;704139;27;892;-69
2024/02/13 00:53:43;;;;;;;10.40;6.77;;;;;;;;;;702975;28;2678;-68
2024/02/13 00:54:03;;;;;;;10.57;7.05;;;;;;;;;;700918;28;779;-68
2024/02/13 00:54:24;;;;;;;11.23;7.10;;;;;;;;;;700185;28;817;-68
2024/02/13 00:54:44;;;;;;;10.15;6.82;;;;;;;;;;701599;28;1754;-68
2024/02/13 00:55:05;;;;;;;11.23;7.30;;;;;;;;;;702772;28;936;-68
2024/02/13 00:55:27;;;;;;;12.25;6.80;;;;;;;;;;701450;28;1196;-68
2024/02/13 00:55:49;;;;;;;11.93;6.80;;;;;;;;;;699279;28;4250;-69
2024/02/13 00:56:11;;;;;;;10.13;6.72;;;;;;;;;;705346;28;940;-68
2024/02/13 00:56:31;;;;;;;10.98;6.18;;;;;;;;;;703316;28;816;-69
2024/02/13 00:56:52;;;;;;;10.80;6.10;;;;;;;;;;702249;28;1840;-69
2024/02/13 00:57:13;;;;;;;11.07;6.63;;;;;;;;;;703689;28;1050;-69
2024/02/13 00:57:34;;;;;;;11.27;6.97;;;;;;;;;;703976;27;3575;-68
2024/02/13 00:57:54;;;;;;;10.23;6.72;;;;;;;;;;705149;27;1736;-69
2024/02/13 00:58:15;;;;;;;9.20;6.70;;;;;;;;;;705530;28;885;-68
2024/02/13 00:58:36;;;;;;;9.35;6.53;;;;;;;;;;703688;27;4366;-68
2024/02/13 00:59:01;;;;;;;9.47;6.73;;;;;;;;;;702492;28;2347;-68
2024/02/13 00:59:22;;;;;;;11.43;6.43;;;;;;;;;;705995;27;899;-68
2024/02/13 00:59:43;;;;;;;12.68;6.57;;;;;;;;;;705537;27;1190;-68
2024/02/13 01:00:09;;;;;;;12.33;6.90;;;;;;;;;;704764;27;1286;-68
2024/02/13 01:00:30;;;;;;;10.35;7.00;;;;;;;;;;704128;28;1169;-68
2024/02/13 01:00:50;;;;;;;10.25;7.10;;;;;;;;;;704279;27;986;-67
2024/02/13 01:01:10;;;;;;;9.47;6.80;;;;;;;;;;704695;27;884;-68
2024/02/13 01:01:30;;;;;;;9.43;6.40;;;;;;;;;;703701;28;936;-68
2024/02/13 01:01:51;;;;;;;11.23;6.53;;;;;;;;;;700016;28;4381;-67
2024/02/13 01:02:11;;;;;;;12.30;6.70;;;;;;;;;;700830;28;2208;-68
2024/02/13 01:02:31;;;;;;;10.47;6.70;;;;;;;;;;698735;28;849;-68
2024/02/13 01:02:52;;;;;;;11.35;6.68;;;;;;;;;;696870;28;1732;-68
2024/02/13 01:03:12;;;;;;;12.57;7.00;;;;;;;;;;696091;28;1346;-68
2024/02/13 01:03:34;;;;;;;13.20;7.30;;;;;;;;;;696874;28;763;-68
2024/02/13 01:03:54;;;;;;;13.57;7.35;;;;;;;;;;695078;28;2081;-68
2024/02/13 01:04:15;;;;;;;12.90;7.07;;;;;;;;;;701004;28;941;-68
2024/02/13 01:04:36;;;;;;;11.97;6.97;;;;;;;;;;700576;28;4386;-68
2024/02/13 01:04:56;;;;;;;11.20;7.00;;;;;;;;;;699786;28;2052;-68
2024/02/13 01:05:17;;;;;;;10.10;6.73;;;;;;;;;;706341;28;731;-68
2024/02/13 01:05:41;;;;;;;10.63;6.83;;;;;;;;;;704367;28;1338;-68
2024/02/13 01:06:01;;;;;;;10.98;7.30;;;;;;;;;;703813;27;1879;-68
2024/02/13 01:06:22;;;;;;;12.93;7.20;;;;;;;;;;703359;27;1974;-68
2024/02/13 01:06:42;;;;;;;11.88;7.05;;;;;;;;;;702291;28;1427;-67
2024/02/13 01:07:02;;;;;;;11.93;7.23;;;;;;;;;;698691;28;1749;-68
2024/02/13 01:07:23;;;;;;;12.63;7.07;;;;;;;;;;701841;28;1139;-68
2024/02/13 01:07:43;;;;;;;10.43;7.22;;;;;;;;;;698899;28;4253;-68
2024/02/13 01:08:04;;;;;;;10.07;7.03;;;;;;;;;;700981;28;1250;-68
2024/02/13 01:08:24;;;;;;;10.90;6.72;;;;;;;;;;699846;28;893;-68
2024/02/13 01:08:44;;;;;;;10.43;6.57;;;;;;;;;;700141;28;1859;-68
2024/02/13 01:09:05;;;;;;;10.00;6.70;;;;;;;;;;701046;28;1477;-68
2024/02/13 01:09:25;;;;;;;9.93;6.70;;;;;;;;;;701532;28;842;-68
2024/02/13 01:09:45;;;;;;;10.23;6.80;;;;;;;;;;699334;28;2315;-68
2024/02/13 01:10:06;;;;;;;10.38;6.97;;;;;;;;;;700933;28;1214;-68
2024/02/13 01:10:26;;;;;;;10.57;7.05;;;;;;;;;;702501;28;907;-68
2024/02/13 01:10:47;;;;;;;10.77;6.90;;;;;;;;;;702527;28;4707;-68
2024/02/13 01:11:07;;;;;;;11.10;7.07;;;;;;;;;;701019;28;852;-68
2024/02/13 01:11:28;;;;;;;10.57;7.18;;;;;;;;;;698263;28;928;-68
2024/02/13 01:11:48;;;;;;;9.13;6.67;;;;;;;;;;697578;28;2536;-68
2024/02/13 01:12:08;;;;;;;11.38;7.15;;;;;;;;;;699176;28;920;-68
2024/02/13 01:12:28;;;;;;;12.23;7.07;;;;;;;;;;698275;28;1415;-68
2024/02/13 01:12:50;;;;;;;9.63;6.63;;;;;;;;;;697999;28;1819;-67
2024/02/13 01:13:12;;;;;;;11.30;7.10;;;;;;;;;;699957;28;1336;-68
2024/02/13 01:13:32;;;;;;;11.15;7.13;;;;;;;;;;702234;28;4280;-68
2024/02/13 01:13:52;;;;;;;8.97;6.70;;;;;;;;;;698879;28;2388;-68
2024/02/13 01:14:13;;;;;;;9.80;6.68;;;;;;;;;;700968;28;888;-66
2024/02/13 01:14:33;;;;;;;11.07;6.80;;;;;;;;;;702577;28;821;-68
2024/02/13 01:14:53;;;;;;;9.98;6.38;;;;;;;;;;700895;28;2247;-68
2024/02/13 01:15:14;;;;;;;12.57;6.63;;;;;;;;;;704898;28;955;-68
2024/02/13 01:15:34;;;;;;;11.68;6.75;;;;;;;;;;700981;28;1305;-68
2024/02/13 01:15:55;;;;;;;12.47;6.67;;;;;;;;;;698994;28;2353;-68
2024/02/13 01:16:15;;;;;;;15.87;7.17;;;;;;;;;;701619;28;917;-68
2024/02/13 01:16:35;;;;;;;10.43;7.23;;;;;;;;;;700272;28;4447;-68
2024/02/13 01:16:56;;;;;;;9.97;7.00;;;;;;;;;;700164;28;1863;-68
2024/02/13 01:17:16;;;;;;;9.57;6.87;;;;;;;;;;702658;28;1310;-68
2024/02/13 01:17:36;;;;;;;10.43;6.57;;;;;;;;;;703870;28;892;-68
2024/02/13 01:17:56;;;;;;;11.43;6.90;;;;;;;;;;702734;28;1790;-68
2024/02/13 01:18:17;;;;;;;9.93;6.77;;;;;;;;;;704370;28;765;-68
2024/02/13 01:18:37;;;;;;;10.43;6.88;;;;;;;;;;705913;28;841;-68
2024/02/13 01:18:57;;;;;;;10.27;6.73;;;;;;;;;;700213;28;2316;-68
2024/02/13 01:19:19;;;;;;;10.17;6.47;;;;;;;;;;702967;28;1381;-68
2024/02/13 01:19:40;;;;;;;10.38;6.50;;;;;;;;;;695301;28;4585;-68
2024/02/13 01:20:01;;;;;;;10.27;6.80;;;;;;;;;;695962;28;1642;-68
2024/02/13 01:20:24;;;;;;;10.15;6.68;;;;;;;;;;697608;28;888;-68
2024/02/13 01:20:45;;;;;;;9.63;6.70;;;;;;;;;;696791;28;1323;-68
2024/02/13 01:21:11;;;;;;;10.32;6.53;;;;;;;;;;699064;28;924;-68
2024/02/13 01:21:32;;;;;;;11.00;7.30;;;;;;;;;;698134;28;972;-68
2024/02/13 01:21:53;;;;;;;11.75;6.90;;;;;;;;;;698707;28;1162;-69
2024/02/13 01:22:14;;;;;;;11.05;6.60;;;;;;;;;;697902;28;852;-68
2024/02/13 01:22:35;;;;;;;11.30;6.60;;;;;;;;;;691983;28;4657;-69
2024/02/13 01:22:55;;;;;;;11.23;7.05;;;;;;;;;;692133;28;1863;-68
2024/02/13 01:23:16;;;;;;;10.20;7.07;;;;;;;;;;694467;28;937;-68
2024/02/13 01:23:37;;;;;;;10.60;7.00;;;;;;;;;;695805;28;860;-68
2024/02/13 01:23:57;;;;;;;10.48;6.63;;;;;;;;;;695180;28;1249;-68
2024/02/13 01:24:17;;;;;;;10.10;6.80;;;;;;;;;;698387;28;1299;-68
2024/02/13 01:24:37;;;;;;;10.87;6.83;;;;;;;;;;701288;28;1427;-68
2024/02/13 01:24:58;;;;;;;9.80;6.60;;;;;;;;;;699891;28;1993;-68
2024/02/13 01:25:18;;;;;;;11.10;6.80;;;;;;;;;;700048;28;967;-68
2024/02/13 01:25:39;;;;;;;11.37;6.70;;;;;;;;;;699219;28;4401;-68
2024/02/13 01:25:59;;;;;;;10.95;6.32;;;;;;;;;;700416;28;1721;-68
2024/02/13 01:26:20;;;;;;;10.20;6.43;;;;;;;;;;700604;28;1910;-68
2024/02/13 01:26:40;;;;;;;11.10;6.93;;;;;;;;;;700840;28;943;-68
2024/02/13 01:27:00;;;;;;;11.40;6.83;;;;;;;;;;700246;28;2500;-68
2024/02/13 01:27:20;;;;;;;11.05;6.32;;;;;;;;;;702903;28;864;-68
2024/02/13 01:27:41;;;;;;;10.27;6.47;;;;;;;;;;700187;28;1376;-68
2024/02/13 01:28:01;;;;;;;9.80;6.43;;;;;;;;;;695345;28;2308;-67
2024/02/13 01:28:22;;;;;;;10.52;6.60;;;;;;;;;;697425;28;817;-68
2024/02/13 01:28:42;;;;;;;11.05;6.55;;;;;;;;;;698427;28;4386;-67
2024/02/13 01:29:02;;;;;;;9.40;6.30;;;;;;;;;;695450;28;1366;-68
2024/02/13 01:29:23;;;;;;;10.20;6.53;;;;;;;;;;696173;28;1052;-68
2024/02/13 01:29:43;;;;;;;12.60;6.80;;;;;;;;;;695958;28;1269;-68
2024/02/13 01:30:04;;;;;;;11.02;6.93;;;;;;;;;;696625;28;1969;-68
2024/02/13 01:30:24;;;;;;;10.90;6.80;;;;;;;;;;700294;28;736;-68
2024/02/13 01:30:45;;;;;;;11.07;6.85;;;;;;;;;;698714;28;1195;-68
2024/02/13 01:31:05;;;;;;;10.73;6.70;;;;;;;;;;700636;28;1068;-68
2024/02/13 01:31:26;;;;;;;10.02;6.80;;;;;;;;;;702363;28;950;-68
2024/02/13 01:31:47;;;;;;;10.37;6.73;;;;;;;;;;702469;28;4416;-67
2024/02/13 01:32:08;;;;;;;9.93;6.80;;;;;;;;;;701672;28;1018;-68
2024/02/13 01:32:28;;;;;;;10.47;6.80;;;;;;;;;;695909;28;1260;-68
2024/02/13 01:32:48;;;;;;;11.23;6.50;;;;;;;;;;694759;28;2278;-68
2024/02/13 01:33:09;;;;;;;10.23;6.67;;;;;;;;;;697361;28;1188;-68
2024/02/13 01:33:29;;;;;;;10.13;7.00;;;;;;;;;;695488;28;873;-69
2024/02/13 01:33:49;;;;;;;10.20;6.70;;;;;;;;;;696743;28;1705;-68
2024/02/13 01:34:09;;;;;;;11.00;6.70;;;;;;;;;;699897;28;869;-68
2024/02/13 01:34:33;;;;;;;9.93;6.60;;;;;;;;;;703420;28;1367;-68
2024/02/13 01:34:53;;;;;;;10.70;6.75;;;;;;;;;;700969;27;4625;-68
2024/02/13 01:35:16;;;;;;;11.10;6.90;;;;;;;;;;706466;27;952;-68
2024/02/13 01:35:42;;;;;;;11.02;6.78;;;;;;;;;;705544;27;1019;-68
2024/02/13 01:36:04;;;;;;;11.23;6.53;;;;;;;;;;704714;27;2432;-67
2024/02/13 01:36:24;;;;;;;10.68;6.88;;;;;;;;;;702869;27;952;-68
2024/02/13 01:36:44;;;;;;;11.17;6.93;;;;;;;;;;705874;27;1241;-68
2024/02/13 01:37:04;;;;;;;11.00;6.33;;;;;;;;;;701590;28;1963;-68
2024/02/13 01:37:25;;;;;;;10.43;6.23;;;;;;;;;;700326;28;1261;-68
2024/02/13 01:37:46;;;;;;;12.07;6.40;;;;;;;;;;698712;28;4398;-68
2024/02/13 01:38:06;;;;;;;11.63;6.55;;;;;;;;;;698141;28;1536;-68
2024/02/13 01:38:30;;;;;;;10.57;6.57;;;;;;;;;;700753;28;1282;-68
2024/02/13 01:38:52;;;;;;;9.45;6.53;;;;;;;;;;700058;28;1938;-69
2024/02/13 01:39:12;;;;;;;9.77;6.57;;;;;;;;;;702208;28;1389;-68
2024/02/13 01:39:32;;;;;;;11.10;6.57;;;;;;;;;;702330;28;1168;-68
2024/02/13 01:39:53;;;;;;;10.10;6.50;;;;;;;;;;700898;27;1008;-68
2024/02/13 01:40:16;;;;;;;10.63;6.53;;;;;;;;;;703197;28;864;-68
2024/02/13 01:40:36;;;;;;;11.25;6.88;;;;;;;;;;699943;28;4427;-68
2024/02/13 01:40:57;;;;;;;10.97;7.03;;;;;;;;;;700503;28;2488;-68
2024/02/13 01:41:17;;;;;;;10.63;6.90;;;;;;;;;;702423;28;876;-68
2024/02/13 01:41:39;;;;;;;10.90;6.83;;;;;;;;;;702858;28;977;-68
2024/02/13 01:42:01;;;;;;;10.82;6.43;;;;;;;;;;702111;27;1455;-68
2024/02/13 01:42:21;;;;;;;10.25;6.53;;;;;;;;;;704974;27;1217;-68
2024/02/13 01:42:42;;;;;;;10.77;6.47;;;;;;;;;;704847;27;942;-68
2024/02/13 01:43:02;;;;;;;10.60;6.53;;;;;;;;;;704217;27;1796;-68
2024/02/13 01:43:25;;;;;;;10.10;6.27;;;;;;;;;;706077;27;970;-68
2024/02/13 01:43:46;;;;;;;9.50;6.28;;;;;;;;;;704909;27;4247;-68
2024/02/13 01:44:06;;;;;;;9.63;6.93;;;;;;;;;;706047;27;1388;-68
2024/02/13 01:44:28;;;;;;;9.80;6.50;;;;;;;;;;706315;27;839;-68
2024/02/13 01:44:51;;;;;;;10.23;6.72;;;;;;;;;;702147;28;2533;-68
2024/02/13 01:45:13;;;;;;;10.18;6.70;;;;;;;;;;701507;28;1353;-68
2024/02/13 01:45:34;;;;;;;10.95;6.82;;;;;;;;;;699681;28;1345;-68
2024/02/13 01:45:55;;;;;;;11.60;6.87;;;;;;;;;;696651;28;1742;-68
2024/02/13 01:46:16;;;;;;;11.88;6.88;;;;;;;;;;699660;28;927;-68
2024/02/13 01:46:36;;;;;;;10.82;6.85;;;;;;;;;;695989;28;4775;-68
2024/02/13 01:46:57;;;;;;;11.07;6.70;;;;;;;;;;695201;28;1019;-68
2024/02/13 01:47:17;;;;;;;10.38;6.63;;;;;;;;;;696255;28;1079;-68
2024/02/13 01:47:41;;;;;;;11.35;7.22;;;;;;;;;;702905;28;998;-68
2024/02/13 01:48:04;;;;;;;12.48;7.32;;;;;;;;;;698574;28;1529;-68
2024/02/13 01:48:25;;;;;;;10.15;6.80;;;;;;;;;;702846;28;1029;-68
2024/02/13 01:48:45;;;;;;;12.25;6.90;;;;;;;;;;701754;28;1147;-68
2024/02/13 01:49:07;;;;;;;12.07;6.90;;;;;;;;;;702178;28;975;-68
2024/02/13 01:49:28;;;;;;;12.05;6.95;;;;;;;;;;702634;28;962;-68
2024/02/13 01:49:48;;;;;;;11.88;7.28;;;;;;;;;;700303;28;4228;-68
2024/02/13 01:50:09;;;;;;;10.87;6.83;;;;;;;;;;701257;28;1061;-68
2024/02/13 01:50:30;;;;;;;10.38;6.53;;;;;;;;;;701617;28;1272;-68
2024/02/13 01:50:50;;;;;;;10.32;6.40;;;;;;;;;;704388;27;1775;-68
2024/02/13 01:51:12;;;;;;;12.33;6.63;;;;;;;;;;701147;28;884;-68
2024/02/13 01:51:34;;;;;;;12.45;6.72;;;;;;;;;;699142;28;1007;-68
2024/02/13 01:51:55;;;;;;;11.60;7.07;;;;;;;;;;697745;28;1908;-68
2024/02/13 01:52:17;;;;;;;12.13;6.85;;;;;;;;;;700390;28;920;-68
2024/02/13 01:52:37;;;;;;;10.77;6.70;;;;;;;;;;698324;28;4352;-68
2024/02/13 01:52:58;;;;;;;11.82;7.32;;;;;;;;;;698881;28;2300;-68
2024/02/13 01:53:21;;;;;;;13.10;7.53;;;;;;;;;;702241;28;1156;-68
2024/02/13 01:53:41;;;;;;;11.27;6.95;;;;;;;;;;702660;28;1139;-68
2024/02/13 01:54:03;;;;;;;10.90;7.13;;;;;;;;;;701597;28;2005;-68
2024/02/13 01:54:25;;;;;;;11.38;6.75;;;;;;;;;;703925;28;983;-68
2024/02/13 01:54:46;;;;;;;12.05;6.55;;;;;;;;;;704121;27;994;-69
2024/02/13 01:55:07;;;;;;;9.87;6.30;;;;;;;;;;704731;27;1258;-68
2024/02/13 01:55:29;;;;;;;10.30;6.78;;;;;;;;;;705030;27;1077;-68
2024/02/13 01:55:50;;;;;;;10.75;6.90;;;;;;;;;;700413;27;4423;-68
2024/02/13 01:56:10;;;;;;;10.80;7.40;;;;;;;;;;705551;27;1027;-68
2024/02/13 01:56:31;;;;;;;10.07;6.63;;;;;;;;;;702056;28;805;-68
2024/02/13 01:56:52;;;;;;;10.80;6.97;;;;;;;;;;701390;28;2631;-68
2024/02/13 01:57:12;;;;;;;10.77;6.82;;;;;;;;;;701784;28;801;-68
2024/02/13 01:57:35;;;;;;;11.00;6.60;;;;;;;;;;701671;28;966;-68
2024/02/13 01:58:01;;;;;;;11.18;6.97;;;;;;;;;;699326;28;2309;-68
2024/02/13 01:58:22;;;;;;;11.90;6.90;;;;;;;;;;704544;27;1249;-68
2024/02/13 01:58:43;;;;;;;11.85;6.82;;;;;;;;;;701702;28;4286;-68
2024/02/13 01:59:04;;;;;;;11.90;6.70;;;;;;;;;;699345;28;2222;-68
2024/02/13 01:59:27;;;;;;;10.93;6.80;;;;;;;;;;699442;28;1534;-68
2024/02/13 01:59:47;;;;;;;11.93;6.73;;;;;;;;;;698189;28;1774;-68
2024/02/13 02:00:14;;;;;;;11.13;7.05;;;;;;;;;;699052;28;1396;-68
2024/02/13 02:00:35;;;;;;;10.40;6.95;;;;;;;;;;694369;28;1615;-68
2024/02/13 02:00:59;;;;;;;11.10;7.00;;;;;;;;;;695938;28;2200;-68
2024/02/13 02:01:20;;;;;;;11.55;7.22;;;;;;;;;;697959;28;991;-68
2024/02/13 02:01:42;;;;;;;11.48;7.00;;;;;;;;;;698360;28;4398;-69
2024/02/13 02:02:02;;;;;;;9.70;6.78;;;;;;;;;;697638;28;2653;-68
2024/02/13 02:02:23;;;;;;;11.67;6.80;;;;;;;;;;698309;28;939;-68
2024/02/13 02:02:45;;;;;;;14.13;7.45;;;;;;;;;;702546;28;1016;-68
2024/02/13 02:03:07;;;;;;;12.38;7.20;;;;;;;;;;701447;28;1916;-69
2024/02/13 02:03:30;;;;;;;11.48;7.18;;;;;;;;;;701712;28;1558;-68
2024/02/13 02:03:52;;;;;;;11.40;6.90;;;;;;;;;;699648;28;1780;-68
2024/02/13 02:04:12;;;;;;;9.95;6.72;;;;;;;;;;703664;28;904;-68
2024/02/13 02:04:33;;;;;;;10.80;7.28;;;;;;;;;;703988;27;4268;-68
2024/02/13 02:04:55;;;;;;;10.63;7.07;;;;;;;;;;704326;27;1818;-68
2024/02/13 02:05:15;;;;;;;10.32;6.78;;;;;;;;;;705733;27;1205;-68
2024/02/13 02:05:36;;;;;;;10.82;6.80;;;;;;;;;;704657;27;1437;-68
2024/02/13 02:06:00;;;;;;;12.13;7.40;;;;;;;;;;702683;27;2577;-68
2024/02/13 02:06:20;;;;;;;11.65;7.30;;;;;;;;;;703926;28;895;-68
2024/02/13 02:06:41;;;;;;;10.57;7.32;;;;;;;;;;706087;27;1902;-68
2024/02/13 02:07:03;;;;;;;11.60;7.20;;;;;;;;;;701371;28;1683;-68
2024/02/13 02:07:24;;;;;;;11.73;7.30;;;;;;;;;;707319;27;1352;-68
2024/02/13 02:07:45;;;;;;;10.23;7.25;;;;;;;;;;704035;27;4223;-68
2024/02/13 02:08:07;;;;;;;10.03;6.97;;;;;;;;;;702739;27;2264;-68
2024/02/13 02:08:27;;;;;;;10.63;7.15;;;;;;;;;;704765;27;1348;-68
2024/02/13 02:08:47;;;;;;;11.43;7.30;;;;;;;;;;700888;28;1778;-68